createdAt,value
2023-05-14T00:00:44.327Z,100542.48
2023-05-14T00:03:14.970Z,100537.77
2023-05-14T00:05:52.888Z,100533.45
2023-05-14T00:08:32.579Z,100534.66
2023-05-14T00:11:22.169Z,100531.20
2023-05-14T00:13:52.919Z,100534.14
2023-05-14T00:16:23.454Z,100532.62
2023-05-14T00:18:57.581Z,100529.84
2023-05-14T00:21:38.169Z,100526.70
2023-05-14T00:24:09.285Z,100529.98
2023-05-14T00:26:42.156Z,100531.72
2023-05-14T00:29:12.663Z,100530.69
2023-05-14T00:31:53.816Z,100528.79
2023-05-14T00:34:33.610Z,100526.30
2023-05-14T00:37:08.447Z,100519.94
2023-05-14T00:39:46.322Z,100514.42
2023-05-14T00:42:27.833Z,100511.27
2023-05-14T00:45:08.352Z,100514.16
2023-05-14T00:47:50.630Z,100513.32
2023-05-14T00:50:25.097Z,100512.48
2023-05-14T00:52:56.143Z,100514.62
2023-05-14T00:55:35.808Z,100513.85
2023-05-14T00:58:27.188Z,100514.31
2023-05-14T01:01:15.392Z,100508.97
2023-05-14T01:03:48.989Z,100506.75
2023-05-14T01:06:26.660Z,100505.09
2023-05-14T01:09:04.523Z,100499.77
2023-05-14T01:11:45.228Z,100500.98
2023-05-14T01:14:26.103Z,100498.53
2023-05-14T01:17:12.598Z,100498.75
2023-05-14T01:19:45.271Z,100499.04
2023-05-14T01:22:16.423Z,100496.77
2023-05-14T01:24:45.629Z,100494.04
2023-05-14T01:27:23.598Z,100491.51
2023-05-14T01:30:00.308Z,100491.43
2023-05-14T01:32:31.400Z,100487.55
2023-05-14T01:35:23.559Z,100487.61
2023-05-14T01:37:56.494Z,100490.98
2023-05-14T01:40:42.798Z,100490.55
2023-05-14T01:43:13.575Z,100492.17
2023-05-14T01:45:45.077Z,100492.23
2023-05-14T01:48:35.782Z,100491.01
2023-05-14T01:51:26.410Z,100489.86
2023-05-14T01:53:56.967Z,100491.14
2023-05-14T01:56:47.773Z,100490.44
2023-05-14T01:59:18.474Z,100491.20
2023-05-14T02:02:09.271Z,100489.30
2023-05-14T02:04:51.276Z,100482.22
2023-05-14T02:07:42.075Z,100484.45
2023-05-14T02:10:13.327Z,100483.44
2023-05-14T02:13:04.402Z,100481.23
2023-05-14T02:15:35.249Z,100480.18
2023-05-14T02:18:14.458Z,100480.18
2023-05-14T02:21:06.712Z,100477.18
2023-05-14T02:23:41.480Z,100481.23
2023-05-14T02:26:32.885Z,100477.02
2023-05-14T02:29:11.582Z,100471.54
2023-05-14T02:31:50.675Z,100471.00
2023-05-14T02:34:24.497Z,100471.92
2023-05-14T02:36:59.001Z,100466.29
2023-05-14T02:39:31.848Z,100468.33
2023-05-14T02:42:02.314Z,100474.52
2023-05-14T02:44:32.925Z,100471.49
2023-05-14T02:47:23.775Z,100470.92
2023-05-14T02:49:54.389Z,100473.71
2023-05-14T02:52:24.743Z,100471.89
2023-05-14T02:54:55.330Z,100473.23
2023-05-14T02:57:39.974Z,100471.98
2023-05-14T03:00:16.012Z,100470.64
2023-05-14T03:02:50.040Z,100468.61
2023-05-14T03:05:42.233Z,100466.60
2023-05-14T03:08:32.897Z,100470.23
2023-05-14T03:11:03.359Z,100473.34
2023-05-14T03:13:37.055Z,100472.35
2023-05-14T03:16:08.283Z,100476.62
2023-05-14T03:18:41.469Z,100477.63
2023-05-14T03:21:13.436Z,100480.02
2023-05-14T03:23:47.713Z,100478.48
2023-05-14T03:26:18.253Z,100476.77
2023-05-14T03:28:48.775Z,100478.38
2023-05-14T03:31:19.330Z,100478.09
2023-05-14T03:33:52.567Z,100473.96
2023-05-14T03:36:25.816Z,100479.65
2023-05-14T03:39:24.885Z,100478.51
2023-05-14T03:41:58.882Z,100474.68
2023-05-14T03:44:36.946Z,100476.30
2023-05-14T03:47:25.685Z,100472.80
2023-05-14T03:50:05.755Z,100473.52
2023-05-14T03:52:36.545Z,100477.54
2023-05-14T03:55:08.198Z,100476.52
2023-05-14T03:57:46.613Z,100474.08
2023-05-14T04:00:18.358Z,100473.06
2023-05-14T04:02:49.018Z,100474.09
2023-05-14T04:05:19.905Z,100476.15
2023-05-14T04:07:52.523Z,100475.48
2023-05-14T04:10:24.422Z,100471.93
2023-05-14T04:13:06.329Z,100469.41
2023-05-14T04:15:57.153Z,100472.81
2023-05-14T04:18:47.896Z,100473.44
2023-05-14T04:21:27.379Z,100470.67
2023-05-14T04:23:57.883Z,100471.39
2023-05-14T04:26:38.563Z,100466.64
2023-05-14T04:29:09.114Z,100469.63
2023-05-14T04:31:49.988Z,100468.98
2023-05-14T04:34:20.512Z,100468.50
2023-05-14T04:37:11.146Z,100471.70
2023-05-14T04:39:44.706Z,100467.88
2023-05-14T04:42:25.663Z,100466.08
2023-05-14T04:44:56.294Z,100468.77
2023-05-14T04:47:36.000Z,100467.52
2023-05-14T04:50:21.754Z,100467.11
2023-05-14T04:53:03.232Z,100469.05
2023-05-14T04:55:54.020Z,100471.85
2023-05-14T04:58:24.679Z,100474.77
2023-05-14T05:00:55.300Z,100480.06
2023-05-14T05:03:45.985Z,100482.99
2023-05-14T05:06:22.121Z,100483.39
2023-05-14T05:09:04.523Z,100484.24
2023-05-14T05:11:37.886Z,100480.75
2023-05-14T05:14:21.462Z,100479.46
2023-05-14T05:17:12.050Z,100480.49
2023-05-14T05:20:03.504Z,100479.83
2023-05-14T05:22:44.170Z,100480.62
2023-05-14T05:25:14.585Z,100485.48
2023-05-14T05:27:45.389Z,100487.29
2023-05-14T05:30:16.321Z,100489.48
2023-05-14T05:32:47.099Z,100487.30
2023-05-14T05:35:19.227Z,100489.77
2023-05-14T05:37:52.253Z,100490.06
2023-05-14T05:40:23.010Z,100493.20
2023-05-14T05:42:53.923Z,100492.11
2023-05-14T05:45:26.851Z,100493.41
2023-05-14T05:47:57.412Z,100490.66
2023-05-14T05:50:38.037Z,100490.83
2023-05-14T05:53:08.557Z,100489.05
2023-05-14T05:55:39.191Z,100486.41
2023-05-14T05:58:09.742Z,100486.79
2023-05-14T06:00:40.323Z,100486.40
2023-05-14T06:03:22.074Z,100485.88
2023-05-14T06:06:02.949Z,100487.50
2023-05-14T06:08:33.541Z,100481.20
2023-05-14T06:11:04.151Z,100487.07
2023-05-14T06:13:37.266Z,100481.63
2023-05-14T06:16:17.875Z,100478.48
2023-05-14T06:18:48.597Z,100479.71
2023-05-14T06:21:30.540Z,100479.48
2023-05-14T06:24:01.185Z,100478.27
2023-05-14T06:26:31.788Z,100473.34
2023-05-14T06:29:02.503Z,100473.40
2023-05-14T06:31:33.027Z,100471.13
2023-05-14T06:34:04.959Z,100469.10
2023-05-14T06:36:35.451Z,100470.96
2023-05-14T06:39:06.523Z,100474.39
2023-05-14T06:41:52.939Z,100475.59
2023-05-14T06:44:34.292Z,100473.97
2023-05-14T06:47:06.539Z,100472.64
2023-05-14T06:49:37.403Z,100468.71
2023-05-14T06:52:08.534Z,100469.02
2023-05-14T06:54:37.616Z,100467.77
2023-05-14T06:57:08.389Z,100466.08
2023-05-14T06:59:38.866Z,100460.48
2023-05-14T07:02:09.469Z,100458.88
2023-05-14T07:04:40.092Z,100458.57
2023-05-14T07:07:15.537Z,100458.73
2023-05-14T07:09:46.221Z,100460.98
2023-05-14T07:12:16.733Z,100455.75
2023-05-14T07:14:47.199Z,100458.30
2023-05-14T07:17:17.764Z,100456.41
2023-05-14T07:19:48.308Z,100456.16
2023-05-14T07:22:18.859Z,100452.78
2023-05-14T07:24:49.218Z,100450.50
2023-05-14T07:27:19.779Z,100448.45
2023-05-14T07:29:50.548Z,100447.05
2023-05-14T07:32:20.994Z,100442.90
2023-05-14T07:34:54.083Z,100442.27
2023-05-14T07:37:26.069Z,100440.36
2023-05-14T07:39:56.755Z,100437.52
2023-05-14T07:42:35.809Z,100434.04
2023-05-14T07:45:09.827Z,100429.42
2023-05-14T07:47:40.765Z,100426.63
2023-05-14T07:50:11.261Z,100426.46
2023-05-14T07:52:44.711Z,100425.64
2023-05-14T07:55:15.215Z,100419.93
2023-05-14T07:57:45.609Z,100419.59
2023-05-14T08:00:36.480Z,100415.18
2023-05-14T08:03:07.039Z,100414.86
2023-05-14T08:05:38.002Z,100412.75
2023-05-14T08:08:12.517Z,100415.70
2023-05-14T08:10:43.144Z,100414.80
2023-05-14T08:13:13.805Z,100416.89
2023-05-14T08:15:44.439Z,100414.13
2023-05-14T08:18:14.793Z,100416.37
2023-05-14T08:20:45.235Z,100409.59
2023-05-14T08:23:15.901Z,100408.00
2023-05-14T08:25:46.350Z,100403.31
2023-05-14T08:28:16.933Z,100403.83
2023-05-14T08:30:47.495Z,100399.38
2023-05-14T08:33:18.312Z,100394.88
2023-05-14T08:35:48.758Z,100390.75
2023-05-14T08:38:19.461Z,100390.48
2023-05-14T08:40:57.015Z,100388.44
2023-05-14T08:43:32.140Z,100387.15
2023-05-14T08:46:11.752Z,100388.77
2023-05-14T08:48:43.873Z,100393.98
2023-05-14T08:51:15.342Z,100392.40
2023-05-14T08:53:45.892Z,100386.15
2023-05-14T08:56:19.291Z,100380.63
2023-05-14T08:58:52.257Z,100381.95
2023-05-14T09:01:23.453Z,100380.67
2023-05-14T09:03:55.164Z,100382.91
2023-05-14T09:06:27.277Z,100381.17
2023-05-14T09:08:58.065Z,100379.11
2023-05-14T09:11:28.505Z,100377.06
2023-05-14T09:13:59.275Z,100377.07
2023-05-14T09:16:32.347Z,100378.89
2023-05-14T09:19:03.224Z,100376.19
2023-05-14T09:21:38.156Z,100374.66
2023-05-14T09:24:09.563Z,100367.16
2023-05-14T09:26:42.431Z,100364.23
2023-05-14T09:29:12.896Z,100369.27
2023-05-14T09:31:43.578Z,100367.37
2023-05-14T09:34:24.377Z,100367.27
2023-05-14T09:36:57.858Z,100366.23
2023-05-14T09:39:29.256Z,100368.80
2023-05-14T09:42:00.038Z,100369.08
2023-05-14T09:44:31.774Z,100370.90
2023-05-14T09:47:02.405Z,100369.27
2023-05-14T09:49:33.627Z,100366.77
2023-05-14T09:52:03.783Z,100364.23
2023-05-14T09:54:34.793Z,100368.05
2023-05-14T09:57:05.840Z,100366.76
2023-05-14T09:59:36.293Z,100365.36
2023-05-14T10:02:12.726Z,100362.09
2023-05-14T10:04:44.218Z,100363.33
2023-05-14T10:07:15.906Z,100357.81
2023-05-14T10:09:46.746Z,100362.65
2023-05-14T10:12:22.526Z,100363.52
2023-05-14T10:14:54.991Z,100365.48
2023-05-14T10:17:28.920Z,100369.27
2023-05-14T10:20:02.558Z,100365.68
2023-05-14T10:22:35.434Z,100366.38
2023-05-14T10:25:07.375Z,100361.69
2023-05-14T10:27:37.998Z,100366.95
2023-05-14T10:30:13.981Z,100363.52
2023-05-14T10:32:45.051Z,100362.57
2023-05-14T10:35:25.350Z,100365.62
2023-05-14T10:37:56.369Z,100361.06
2023-05-14T10:40:30.842Z,100364.62
2023-05-14T10:43:01.723Z,100367.75
2023-05-14T10:45:34.395Z,100365.21
2023-05-14T10:48:05.307Z,100363.91
2023-05-14T10:50:36.085Z,100360.73
2023-05-14T10:53:06.530Z,100361.07
2023-05-14T10:55:39.293Z,100357.52
2023-05-14T10:58:13.418Z,100360.87
2023-05-14T11:00:43.850Z,100359.72
2023-05-14T11:03:14.900Z,100358.98
2023-05-14T11:05:45.046Z,100360.23
2023-05-14T11:08:16.182Z,100356.52
2023-05-14T11:10:47.295Z,100356.14
2023-05-14T11:13:20.227Z,100352.32
2023-05-14T11:15:50.553Z,100350.65
2023-05-14T11:18:30.567Z,100354.42
2023-05-14T11:21:04.426Z,100350.95
2023-05-14T11:23:34.840Z,100350.09
2023-05-14T11:26:05.489Z,100347.66
2023-05-14T11:28:35.876Z,100345.11
2023-05-14T11:31:09.027Z,100344.46
2023-05-14T11:33:40.747Z,100345.63
2023-05-14T11:36:13.950Z,100341.21
2023-05-14T11:38:52.335Z,100340.73
2023-05-14T11:41:23.582Z,100337.55
2023-05-14T11:43:54.241Z,100337.70
2023-05-14T11:46:26.183Z,100337.27
2023-05-14T11:48:56.752Z,100333.15
2023-05-14T11:51:27.126Z,100330.21
2023-05-14T11:53:58.900Z,100329.94
2023-05-14T11:56:29.471Z,100325.88
2023-05-14T11:59:00.501Z,100324.79
2023-05-14T12:01:34.479Z,100323.42
2023-05-14T12:04:06.763Z,100324.05
2023-05-14T12:06:37.316Z,100322.98
2023-05-14T12:09:09.005Z,100319.08
2023-05-14T12:11:39.880Z,100315.07
2023-05-14T12:14:15.862Z,100311.64
2023-05-14T12:16:50.146Z,100310.11
2023-05-14T12:19:23.422Z,100305.08
2023-05-14T12:21:53.777Z,100301.73
2023-05-14T12:24:26.432Z,100290.64
2023-05-14T12:26:57.380Z,100288.05
2023-05-14T12:29:28.974Z,100286.66
2023-05-14T12:32:00.659Z,100279.96
2023-05-14T12:34:31.181Z,100277.39
2023-05-14T12:37:01.582Z,100270.02
2023-05-14T12:39:34.437Z,100269.84
2023-05-14T12:42:05.044Z,100268.02
2023-05-14T12:44:35.422Z,100266.88
2023-05-14T12:47:06.778Z,100266.84
2023-05-14T12:49:37.284Z,100263.61
2023-05-14T12:52:25.644Z,100258.67
2023-05-14T12:54:58.578Z,100257.37
2023-05-14T12:57:30.284Z,100257.61
2023-05-14T13:00:00.784Z,100254.30
2023-05-14T13:02:34.139Z,100249.49
2023-05-14T13:05:14.628Z,100247.58
2023-05-14T13:07:44.984Z,100243.76
2023-05-14T13:10:17.502Z,100242.73
2023-05-14T13:12:47.883Z,100240.77
2023-05-14T13:15:22.148Z,100234.68
2023-05-14T13:17:52.851Z,100231.43
2023-05-14T13:20:24.678Z,100231.64
2023-05-14T13:22:55.569Z,100230.52
2023-05-14T13:25:26.414Z,100229.44
2023-05-14T13:27:56.361Z,100226.05
2023-05-14T13:30:26.881Z,100223.77
2023-05-14T13:32:57.282Z,100223.70
2023-05-14T13:35:27.792Z,100221.65
2023-05-14T13:37:58.266Z,100217.98
2023-05-14T13:40:28.722Z,100220.14
2023-05-14T13:42:59.257Z,100214.19
2023-05-14T13:45:29.602Z,100209.27
2023-05-14T13:48:00.249Z,100203.92
2023-05-14T13:50:30.776Z,100202.02
2023-05-14T13:53:01.280Z,100190.65
2023-05-14T13:55:31.696Z,100185.42
2023-05-14T13:58:03.988Z,100181.70
2023-05-14T14:00:35.300Z,100176.01
2023-05-14T14:03:06.205Z,100168.30
2023-05-14T14:05:37.357Z,100159.27
2023-05-14T14:08:22.842Z,100154.96
2023-05-14T14:10:55.561Z,100149.93
2023-05-14T14:13:26.240Z,100150.59
2023-05-14T14:15:56.812Z,100147.43
2023-05-14T14:18:27.602Z,100149.31
2023-05-14T14:20:58.124Z,100142.20
2023-05-14T14:23:28.610Z,100136.75
2023-05-14T14:25:58.984Z,100131.77
2023-05-14T14:28:29.437Z,100125.04
2023-05-14T14:30:59.914Z,100124.44
2023-05-14T14:33:30.368Z,100122.39
2023-05-14T14:36:00.708Z,100117.47
2023-05-14T14:38:31.034Z,100114.68
2023-05-14T14:41:03.097Z,100109.11
2023-05-14T14:43:33.655Z,100108.80
2023-05-14T14:46:04.243Z,100105.35
2023-05-14T14:48:37.777Z,100106.39
2023-05-14T14:51:09.490Z,100099.81
2023-05-14T14:53:40.430Z,100099.77
2023-05-14T14:56:10.995Z,100096.83
2023-05-14T14:58:41.436Z,100092.16
2023-05-14T15:01:11.924Z,100087.73
2023-05-14T15:03:42.772Z,100090.14
2023-05-14T15:06:13.448Z,100093.45
2023-05-14T15:08:42.273Z,100092.42
2023-05-14T15:11:12.628Z,100092.65
2023-05-14T15:13:43.010Z,100083.83
2023-05-14T15:16:13.604Z,100088.77
2023-05-14T15:18:44.175Z,100085.44
2023-05-14T15:21:14.714Z,100091.19
2023-05-14T15:23:45.025Z,100089.57
2023-05-14T15:26:15.308Z,100090.09
2023-05-14T15:28:45.714Z,100093.48
2023-05-14T15:31:16.762Z,100095.13
2023-05-14T15:33:47.320Z,100091.52
2023-05-14T15:36:17.823Z,100093.52
2023-05-14T15:38:48.353Z,100092.94
2023-05-14T15:41:18.909Z,100097.15
2023-05-14T15:43:49.257Z,100098.48
2023-05-14T15:46:19.628Z,100098.11
2023-05-14T15:48:50.071Z,100093.91
2023-05-14T15:51:20.597Z,100088.34
2023-05-14T15:53:51.210Z,100081.79
2023-05-14T15:56:21.778Z,100079.10
2023-05-14T15:58:52.180Z,100075.14
2023-05-14T16:01:22.815Z,100074.05
2023-05-14T16:03:53.975Z,100069.55
2023-05-14T16:06:24.532Z,100066.52
2023-05-14T16:08:56.084Z,100064.92
2023-05-14T16:11:26.527Z,100060.54
2023-05-14T16:13:58.403Z,100064.52
2023-05-14T16:16:31.732Z,100067.69
2023-05-14T16:19:02.196Z,100068.13
2023-05-14T16:21:32.712Z,100064.25
2023-05-14T16:24:03.174Z,100066.92
2023-05-14T16:26:33.881Z,100067.69
2023-05-14T16:29:05.067Z,100061.30
2023-05-14T16:31:35.741Z,100056.88
2023-05-14T16:34:06.391Z,100055.86
2023-05-14T16:36:37.288Z,100054.60
2023-05-14T16:39:08.555Z,100056.02
2023-05-14T16:41:39.039Z,100058.23
2023-05-14T16:44:09.630Z,100055.39
2023-05-14T16:46:40.214Z,100052.98
2023-05-14T16:49:10.807Z,100056.98
2023-05-14T16:51:43.094Z,100052.40
2023-05-14T16:54:13.853Z,100052.45
2023-05-14T16:56:48.297Z,100049.40
2023-05-14T16:59:19.293Z,100046.75
2023-05-14T17:01:49.864Z,100046.10
2023-05-14T17:04:21.199Z,100050.95
2023-05-14T17:06:52.266Z,100052.34
2023-05-14T17:09:32.901Z,100054.11
2023-05-14T17:12:03.344Z,100055.20
2023-05-14T17:14:33.845Z,100054.08
2023-05-14T17:17:04.573Z,100055.60
2023-05-14T17:19:34.994Z,100050.87
2023-05-14T17:22:07.266Z,100057.19
2023-05-14T17:24:39.059Z,100060.61
2023-05-14T17:27:09.666Z,100065.12
2023-05-14T17:29:40.086Z,100065.08
2023-05-14T17:32:10.754Z,100063.67
2023-05-14T17:34:41.264Z,100062.73
2023-05-14T17:37:11.751Z,100064.02
2023-05-14T17:39:42.112Z,100066.81
2023-05-14T17:42:12.424Z,100066.61
2023-05-14T17:44:42.913Z,100073.50
2023-05-14T17:47:13.633Z,100071.13
2023-05-14T17:49:44.131Z,100071.14
2023-05-14T17:52:14.636Z,100075.99
2023-05-14T17:54:45.074Z,100077.20
2023-05-14T17:57:15.702Z,100074.51
2023-05-14T17:59:46.356Z,100074.70
2023-05-14T18:02:16.765Z,100076.60
2023-05-14T18:04:47.163Z,100076.83
2023-05-14T18:07:18.842Z,100080.17
2023-05-14T18:09:49.332Z,100080.95
2023-05-14T18:12:19.633Z,100080.18
2023-05-14T18:14:50.036Z,100089.38
2023-05-14T18:17:20.562Z,100090.17
2023-05-14T18:19:50.998Z,100094.46
2023-05-14T18:22:21.547Z,100102.55
2023-05-14T18:24:51.984Z,100104.00
2023-05-14T18:27:22.475Z,100111.02
2023-05-14T18:29:53.365Z,100116.33
2023-05-14T18:32:23.871Z,100122.16
2023-05-14T18:34:54.524Z,100129.67
2023-05-14T18:37:25.107Z,100132.19
2023-05-14T18:39:55.583Z,100136.20
2023-05-14T18:42:26.222Z,100144.23
2023-05-14T18:44:56.659Z,100144.68
2023-05-14T18:47:27.433Z,100152.36
2023-05-14T18:50:00.321Z,100155.82
2023-05-14T18:52:32.326Z,100163.39
2023-05-14T18:55:03.124Z,100159.95
2023-05-14T18:57:33.976Z,100159.86
2023-05-14T19:00:05.208Z,100156.02
2023-05-14T19:02:34.357Z,100159.06
2023-05-14T19:05:05.004Z,100155.86
2023-05-14T19:07:35.633Z,100153.33
2023-05-14T19:10:07.683Z,100157.95
2023-05-14T19:12:41.187Z,100159.54
2023-05-14T19:15:12.830Z,100160.71
2023-05-14T19:17:43.425Z,100158.89
2023-05-14T19:20:14.941Z,100152.72
2023-05-14T19:22:45.455Z,100160.02
2023-05-14T19:25:15.939Z,100164.32
2023-05-14T19:27:51.015Z,100166.01
2023-05-14T19:30:22.783Z,100171.92
2023-05-14T19:32:53.441Z,100179.20
2023-05-14T19:35:24.153Z,100180.96
2023-05-14T19:37:54.985Z,100182.46
2023-05-14T19:40:25.440Z,100180.89
2023-05-14T19:42:58.988Z,100186.70
2023-05-14T19:45:29.337Z,100191.25
2023-05-14T19:47:59.971Z,100190.23
2023-05-14T19:50:30.685Z,100193.40
2023-05-14T19:53:01.305Z,100193.20
2023-05-14T19:55:31.805Z,100199.42
2023-05-14T19:58:02.585Z,100198.94
2023-05-14T20:00:33.054Z,100195.27
2023-05-14T20:03:03.660Z,100194.45
2023-05-14T20:05:35.393Z,100191.59
2023-05-14T20:08:08.243Z,100193.40
2023-05-14T20:10:39.329Z,100188.35
2023-05-14T20:13:09.945Z,100189.30
2023-05-14T20:15:41.117Z,100186.91
2023-05-14T20:18:11.692Z,100187.17
2023-05-14T20:20:42.850Z,100191.70
2023-05-14T20:23:13.529Z,100193.17
2023-05-14T20:25:44.246Z,100193.36
2023-05-14T20:28:14.675Z,100194.59
2023-05-14T20:30:45.176Z,100192.91
2023-05-14T20:33:15.959Z,100192.79
2023-05-14T20:35:53.974Z,100194.77
2023-05-14T20:38:25.683Z,100191.62
2023-05-14T20:40:56.171Z,100191.45
2023-05-14T20:43:27.162Z,100189.40
2023-05-14T20:46:00.513Z,100186.54
2023-05-14T20:48:31.061Z,100185.46
2023-05-14T20:51:06.689Z,100180.64
2023-05-14T20:53:39.065Z,100179.14
2023-05-14T20:56:09.985Z,100175.97
2023-05-14T20:58:40.649Z,100170.30
2023-05-14T21:01:11.077Z,100165.77
2023-05-14T21:03:41.649Z,100159.83
2023-05-14T21:06:12.432Z,100157.02
2023-05-14T21:08:43.012Z,100156.60
2023-05-14T21:11:14.202Z,100156.25
2023-05-14T21:13:45.152Z,100153.84
2023-05-14T21:16:15.674Z,100151.70
2023-05-14T21:18:46.488Z,100154.20
2023-05-14T21:21:16.992Z,100148.67
2023-05-14T21:23:47.593Z,100146.05
2023-05-14T21:26:18.010Z,100148.89
2023-05-14T21:28:48.371Z,100151.45
2023-05-14T21:31:18.841Z,100155.23
2023-05-14T21:33:49.375Z,100151.09
2023-05-14T21:36:20.516Z,100153.99
2023-05-14T21:38:49.509Z,100148.19
2023-05-14T21:41:20.030Z,100139.10
2023-05-14T21:43:50.432Z,100132.11
2023-05-14T21:46:21.110Z,100125.77
2023-05-14T21:48:51.712Z,100123.54
2023-05-14T21:51:22.258Z,100111.27
2023-05-14T21:53:55.182Z,100109.41
2023-05-14T21:56:26.375Z,100109.63
2023-05-14T21:58:56.101Z,100116.14
2023-05-14T22:01:26.690Z,100114.70
2023-05-14T22:03:57.980Z,100112.77
2023-05-14T22:06:38.825Z,100113.63
2023-05-14T22:09:11.126Z,100113.35
2023-05-14T22:11:41.630Z,100115.66
2023-05-14T22:14:11.948Z,100120.79
2023-05-14T22:16:42.606Z,100125.17
2023-05-14T22:19:27.836Z,100126.27
2023-05-14T22:21:58.858Z,100127.27
2023-05-14T22:24:38.652Z,100121.95
2023-05-14T22:27:09.265Z,100119.79
2023-05-14T22:29:39.910Z,100116.65
2023-05-14T22:32:10.882Z,100116.00
2023-05-14T22:34:41.511Z,100110.91
2023-05-14T22:37:11.864Z,100115.88
2023-05-14T22:39:53.511Z,100111.97
2023-05-14T22:42:23.996Z,100109.63
2023-05-14T22:44:54.386Z,100110.56
2023-05-14T22:47:25.278Z,100112.74
2023-05-14T22:49:55.781Z,100106.98
2023-05-14T22:52:26.497Z,100105.77
2023-05-14T22:54:57.023Z,100104.17
2023-05-14T22:57:27.530Z,100101.09
2023-05-14T22:59:57.913Z,100095.00
2023-05-14T23:02:30.538Z,100091.41
2023-05-14T23:05:00.977Z,100089.72
2023-05-14T23:07:31.308Z,100087.73
2023-05-14T23:10:01.938Z,100083.34
2023-05-14T23:12:32.489Z,100083.84
2023-05-14T23:15:03.014Z,100084.19
2023-05-14T23:17:33.505Z,100085.93
2023-05-14T23:20:05.863Z,100083.80
2023-05-14T23:22:36.269Z,100082.14
2023-05-14T23:25:07.866Z,100081.68
2023-05-14T23:27:38.529Z,100084.13
2023-05-14T23:30:11.063Z,100081.82
2023-05-14T23:32:41.433Z,100080.44
2023-05-14T23:35:12.311Z,100079.06
2023-05-14T23:37:47.403Z,100085.45
2023-05-14T23:40:18.109Z,100082.05
2023-05-14T23:42:48.582Z,100080.90
2023-05-14T23:45:19.298Z,100078.48
2023-05-14T23:47:49.726Z,100079.29
2023-05-14T23:50:20.328Z,100083.01
2023-05-14T23:52:52.055Z,100085.73
2023-05-14T23:55:23.296Z,100084.50
2023-05-14T23:57:52.371Z,100082.96
